Time;durP1;ratioP1;P1;durP2;ratioP2;P2;SDS_P1;SDS_P2;PMS_P1;PMS_P2;Temp;Humidity;BMP_temperature;BMP_pressure;BME280_temperature;BME280_humidity;BME280_pressure;Samples;Min_cycle;Max_cycle;Signal;HPM_P1;HPM_P2
2021/12/08 07:25:33;;;;;;;;;4.33;1.67;;;;;5.05;72.93;99412.88;5927875;22;46396;-84
2021/12/08 07:27:59;;;;;;;;;1.33;0.00;;;;;5.02;72.72;99417.13;4986476;28;45413;-86
2021/12/08 07:30:39;;;;;;;;;1.00;0.00;;;;;5.07;73.61;99406.03;4988718;28;46230;-85
2021/12/08 07:33:04;;;;;;;;;0.67;0.00;;;;;5.11;73.29;99429.66;4984678;28;45651;-85
2021/12/08 07:35:36;;;;;;;;;1.00;1.00;;;;;5.12;73.46;99415.84;4977663;28;45530;-84
2021/12/08 07:38:03;;;;;;;;;3.00;1.33;;;;;5.18;72.75;99416.94;4997496;28;45557;-84
2021/12/08 07:40:36;;;;;;;;;1.67;1.67;;;;;5.18;72.34;99430.81;4998860;28;45363;-84
2021/12/08 07:43:09;;;;;;;;;1.00;1.00;;;;;5.23;73.16;99452.72;4990373;28;45502;-84
2021/12/08 07:45:42;;;;;;;;;6.33;2.00;;;;;5.25;73.03;99439.81;4974740;28;45434;-84
2021/12/08 07:48:14;;;;;;;;;2.00;0.67;;;;;5.25;73.26;99442.41;4990019;28;45411;-85
2021/12/08 07:50:57;;;;;;;;;2.00;0.33;;;;;5.28;73.39;99452.06;4987520;28;45922;-84
2021/12/08 07:53:25;;;;;;;;;2.00;1.00;;;;;5.38;73.28;99474.19;4989209;28;45621;-85
2021/12/08 07:55:58;;;;;;;;;0.00;0.00;;;;;5.36;72.96;99459.38;4971500;28;46790;-85
2021/12/08 07:58:24;;;;;;;;;2.00;2.00;;;;;5.44;73.12;99474.47;4986732;28;46571;-85
2021/12/08 08:00:59;;;;;;;;;1.00;1.00;;;;;5.41;73.18;99458.72;4991954;28;47397;-85
2021/12/08 08:03:28;;;;;;;;;2.00;0.00;;;;;5.46;71.82;99472.84;4972421;28;45477;-85
2021/12/08 08:05:55;;;;;;;;;0.67;0.67;;;;;5.43;72.79;99463.19;4970599;28;45565;-86
2021/12/08 08:08:24;;;;;;;;;1.00;1.00;;;;;5.50;73.28;99461.75;4979260;28;48051;-86
2021/12/08 08:11:08;;;;;;;;;0.33;0.00;;;;;5.51;72.76;99458.31;4993966;28;45937;-86
2021/12/08 08:13:34;;;;;;;;;3.00;1.00;;;;;5.54;73.18;99463.66;4992867;28;45512;-86
2021/12/08 08:16:07;;;;;;;;;1.00;1.00;;;;;5.57;73.14;99473.31;4995198;28;45443;-86
2021/12/08 08:18:36;;;;;;;;;1.00;0.67;;;;;5.56;73.05;99456.81;4996411;28;45564;-86
2021/12/08 08:21:16;;;;;;;;;3.00;0.67;;;;;5.58;72.47;99460.38;4976685;28;45923;-88
2021/12/08 08:23:41;;;;;;;;;2.67;1.67;;;;;5.55;72.85;99452.44;4998215;28;45430;-86
2021/12/08 08:26:09;;;;;;;;;0.33;0.33;;;;;5.59;72.09;99458.66;4969805;28;46219;-86
2021/12/08 08:28:36;;;;;;;;;2.00;2.00;;;;;5.56;72.58;99462.03;4993755;28;46430;-85
2021/12/08 08:31:26;;;;;;;;;2.00;2.00;;;;;5.57;72.54;99463.78;4992058;28;45395;-86
2021/12/08 08:33:52;;;;;;;;;0.67;0.67;;;;;5.63;72.82;99486.63;4992511;28;45689;-85
2021/12/08 08:36:23;;;;;;;;;0.67;0.33;;;;;5.63;72.70;99486.63;4988183;28;45603;-85
2021/12/08 08:39:28;;;;;;;;;2.67;1.00;;;;;5.67;72.64;99488.53;4989787;28;45574;-86
2021/12/08 08:42:01;;;;;;;;;2.00;2.00;;;;;5.65;72.66;99484.97;4988408;28;46274;-86
2021/12/08 08:44:35;;;;;;;;;0.67;0.67;;;;;5.69;72.61;99491.22;4977409;28;45552;-85
2021/12/08 08:47:10;;;;;;;;;2.00;0.00;;;;;5.70;72.51;99493.88;4992182;28;45463;-85
2021/12/08 08:49:37;;;;;;;;;1.00;0.00;;;;;5.75;72.35;99490.56;4981968;28;45826;-85
2021/12/08 08:52:10;;;;;;;;;0.00;0.00;;;;;5.81;72.64;99506.47;4975806;28;49451;-85
2021/12/08 08:54:39;;;;;;;;;6.33;2.00;;;;;5.82;72.73;99500.47;4992475;28;45493;-85
2021/12/08 08:57:17;;;;;;;;;0.67;0.67;;;;;5.85;71.83;99500.56;4974231;28;45843;-85
2021/12/08 08:59:47;;;;;;;;;1.33;0.67;;;;;5.86;72.25;99494.56;4991341;28;46389;-84
2021/12/08 09:02:18;;;;;;;;;0.67;0.67;;;;;5.91;72.60;99498.25;4972702;28;46595;-84
2021/12/08 09:04:50;;;;;;;;;0.00;0.00;;;;;5.97;70.88;99502.84;4992070;28;45540;-85
2021/12/08 09:07:22;;;;;;;;;3.00;1.00;;;;;6.01;71.87;99512.56;4974388;28;45640;-84
2021/12/08 09:09:48;;;;;;;;;2.00;1.00;;;;;6.04;70.16;99525.75;4988216;28;46028;-84
2021/12/08 09:12:14;;;;;;;;;1.33;1.00;;;;;6.08;70.43;99525.91;4991577;28;45581;-84
2021/12/08 09:14:58;;;;;;;;;2.00;1.00;;;;;6.02;71.43;99509.16;4990005;28;45394;-84
2021/12/08 09:17:30;;;;;;;;;0.00;0.00;;;;;6.10;71.23;99517.34;4960812;28;45747;-85
2021/12/08 09:20:05;;;;;;;;;1.00;1.00;;;;;6.12;71.45;99525.22;4972585;28;47363;-84
2021/12/08 09:22:49;;;;;;;;;0.67;0.67;;;;;6.14;71.12;99521.84;4994034;28;45591;-84
2021/12/08 09:25:19;;;;;;;;;3.00;1.00;;;;;6.20;70.83;99512.53;4997072;28;45431;-84
2021/12/08 09:27:50;;;;;;;;;2.00;2.00;;;;;6.20;70.47;99518.63;4989771;28;45839;-85
2021/12/08 09:30:32;;;;;;;;;3.00;2.00;;;;;6.22;71.85;99530.00;4978445;28;48176;-84
2021/12/08 09:33:02;;;;;;;;;5.00;1.67;;;;;6.28;70.53;99525.88;4976272;28;45998;-85
2021/12/08 09:35:33;;;;;;;;;1.00;1.00;;;;;6.32;71.41;99527.78;4991588;28;45422;-85
2021/12/08 09:38:05;;;;;;;;;1.00;1.00;;;;;6.44;70.43;99536.13;4989269;28;45623;-84
2021/12/08 09:40:40;;;;;;;;;2.33;1.33;;;;;6.60;71.02;99536.78;4991837;28;47608;-84
2021/12/08 09:43:20;;;;;;;;;2.00;2.00;;;;;6.79;71.13;99535.84;4978973;28;45332;-85
2021/12/08 09:45:56;;;;;;;;;2.00;0.00;;;;;6.84;71.09;99528.19;4980090;28;45448;-85
2021/12/08 09:48:26;;;;;;;;;1.00;1.00;;;;;6.86;70.42;99523.91;4978999;28;45510;-84
2021/12/08 09:50:53;;;;;;;;;2.33;1.00;;;;;6.84;69.58;99533.41;4975555;28;47380;-85
2021/12/08 09:53:19;;;;;;;;;1.00;1.00;;;;;6.78;70.03;99518.38;4994052;28;45552;-84
2021/12/08 09:55:45;;;;;;;;;2.00;1.00;;;;;6.78;69.49;99531.44;4993949;28;45462;-85
2021/12/08 09:58:10;;;;;;;;;1.00;1.00;;;;;6.83;69.59;99534.22;4973271;28;45668;-85
2021/12/08 10:00:40;;;;;;;;;0.00;0.00;;;;;6.81;70.50;99513.31;4994200;28;46754;-85
2021/12/08 10:03:05;;;;;;;;;1.33;1.00;;;;;6.88;70.74;99526.63;4976288;28;46040;-85
2021/12/08 10:05:35;;;;;;;;;3.00;0.00;;;;;6.87;70.66;99517.88;4977547;28;45470;-85
2021/12/08 10:08:03;;;;;;;;;2.00;1.00;;;;;6.93;68.60;99512.03;4976578;28;45825;-85
2021/12/08 10:10:30;;;;;;;;;1.00;1.00;;;;;6.96;69.94;99521.72;4996435;28;47189;-85
2021/12/08 10:12:56;;;;;;;;;2.00;1.00;;;;;6.97;70.49;99510.41;4971050;28;45653;-85
2021/12/08 10:15:23;;;;;;;;;1.00;1.00;;;;;7.06;68.97;99526.44;4990928;28;45556;-85
2021/12/08 10:17:52;;;;;;;;;1.00;1.00;;;;;7.07;68.52;99522.09;4991105;28;46471;-85
2021/12/08 10:20:28;;;;;;;;;1.00;1.00;;;;;7.06;69.34;99516.00;4989737;28;46081;-85
2021/12/08 10:23:24;;;;;;;;;1.00;1.00;;;;;7.11;69.20;99509.25;4971876;28;45790;-85
2021/12/08 10:25:55;;;;;;;;;0.67;0.67;;;;;7.12;69.30;99507.53;4991658;28;45542;-85
2021/12/08 10:28:25;;;;;;;;;4.33;2.33;;;;;7.17;68.62;99520.75;4979508;28;45568;-86
2021/12/08 10:31:14;;;;;;;;;1.00;0.33;;;;;7.19;68.28;99524.34;4972729;28;48664;-85
2021/12/08 10:34:03;;;;;;;;;4.33;0.33;;;;;7.21;68.36;99520.97;4969307;28;46216;-85
2021/12/08 10:38:59;;;;;;;;;1.33;0.00;;;;;7.21;66.86;99513.13;4990114;28;45943;-85
2021/12/08 10:41:24;;;;;;;;;1.00;1.00;;;;;7.17;68.33;99510.31;4974942;28;46658;-85
2021/12/08 10:43:59;;;;;;;;;0.33;0.33;;;;;7.19;68.36;99511.28;4991565;28;45478;-85
2021/12/08 10:46:34;;;;;;;;;0.67;0.67;;;;;7.14;68.61;99508.47;5001992;28;45598;-87
2021/12/08 10:49:15;;;;;;;;;1.00;1.00;;;;;7.03;68.80;99493.31;4995264;28;47833;-85
2021/12/08 10:54:33;;;;;;;;;1.33;0.67;;;;;6.96;68.92;99506.06;4988821;28;45836;-85
2021/12/08 10:57:03;;;;;;;;;1.00;1.00;;;;;6.95;68.27;99515.59;4977411;28;45564;-86
2021/12/08 10:59:51;;;;;;;;;2.67;1.00;;;;;7.01;69.27;99518.44;4968153;28;45474;-86
2021/12/08 11:02:45;;;;;;;;;1.00;1.00;;;;;7.03;69.66;99510.69;4991054;28;45403;-85
2021/12/08 11:05:25;;;;;;;;;1.67;1.67;;;;;7.08;70.70;99508.25;4971850;28;45581;-85
2021/12/08 11:08:24;;;;;;;;;1.33;1.00;;;;;7.12;69.99;99512.75;4993780;28;45644;-85
2021/12/08 11:10:52;;;;;;;;;1.67;0.67;;;;;7.21;68.74;99520.97;4977512;28;45541;-85
2021/12/08 11:13:21;;;;;;;;;2.00;1.00;;;;;7.22;70.09;99514.88;5010640;28;47407;-85
2021/12/08 11:15:56;;;;;;;;;1.00;1.00;;;;;7.28;69.35;99519.47;4987740;28;45271;-85
2021/12/08 11:18:23;;;;;;;;;0.33;0.33;;;;;7.34;68.69;99519.72;4980154;28;45307;-84
2021/12/08 11:20:51;;;;;;;;;2.33;0.33;;;;;7.38;68.75;99518.09;4990424;28;45685;-85
2021/12/08 11:23:38;;;;;;;;;2.00;1.00;;;;;7.37;69.38;99517.19;4968704;28;46413;-84
2021/12/08 11:26:29;;;;;;;;;10.67;10.33;;;;;7.42;68.69;99517.38;4985812;28;45338;-84
2021/12/08 11:29:04;;;;;;;;;7.00;3.00;;;;;7.47;68.59;99523.66;4973242;28;45437;-85
2021/12/08 11:31:40;;;;;;;;;6.00;6.00;;;;;7.53;68.98;99512.56;4988794;28;45639;-85
2021/12/08 11:34:23;;;;;;;;;2.00;2.00;;;;;7.58;68.13;99523.19;4976075;28;47171;-85
2021/12/08 11:36:53;;;;;;;;;0.67;0.00;;;;;7.60;67.63;99506.72;4981076;28;45771;-85
2021/12/08 11:39:26;;;;;;;;;2.00;2.00;;;;;7.64;68.43;99510.38;4976966;28;45557;-85
2021/12/08 11:41:55;;;;;;;;;2.67;2.00;;;;;7.64;68.43;99509.47;4994583;28;45549;-85
2021/12/08 11:44:27;;;;;;;;;4.00;3.00;;;;;7.59;67.89;99504.06;4993126;28;46155;-85
2021/12/08 11:47:14;;;;;;;;;2.67;2.00;;;;;7.65;68.62;99512.16;4996311;28;45493;-85
2021/12/08 11:49:43;;;;;;;;;2.00;2.00;;;;;7.65;67.90;99506.94;4969203;28;45500;-85
2021/12/08 11:52:13;;;;;;;;;2.00;2.00;;;;;7.70;68.23;99505.38;4999481;28;45759;-85
2021/12/08 11:54:48;;;;;;;;;1.00;1.00;;;;;7.81;69.40;99512.69;4997491;28;45538;-85
2021/12/08 11:57:24;;;;;;;;;0.67;0.33;;;;;7.87;66.79;99507.72;4976125;28;45449;-86
2021/12/08 12:00:00;;;;;;;;;2.67;1.00;;;;;7.92;67.71;99505.25;4989418;28;45501;-85
2021/12/08 12:02:37;;;;;;;;;2.00;2.00;;;;;8.04;67.51;99510.06;4992997;28;45549;-86
2021/12/08 12:05:12;;;;;;;;;2.67;1.00;;;;;8.11;67.76;99519.00;4991180;28;47366;-85
2021/12/08 12:07:39;;;;;;;;;0.00;0.00;;;;;8.11;66.58;99505.91;5000456;28;45459;-85
2021/12/08 12:10:12;;;;;;;;;1.67;0.67;;;;;8.10;66.51;99515.47;4991902;28;45502;-85
2021/12/08 12:12:39;;;;;;;;;11.00;8.00;;;;;8.14;66.53;99517.34;4997391;28;45570;-86
2021/12/08 12:15:06;;;;;;;;;11.00;8.00;;;;;8.14;66.36;99513.88;4979927;28;47452;-85
2021/12/08 12:17:31;;;;;;;;;5.67;4.67;;;;;8.17;67.26;99519.19;4996166;28;45477;-86
2021/12/08 12:20:05;;;;;;;;;3.00;3.00;;;;;8.21;67.80;99518.47;4974783;28;45795;-86
2021/12/08 12:22:40;;;;;;;;;5.33;5.33;;;;;8.22;67.59;99535.06;4992174;28;45511;-85
2021/12/08 12:25:26;;;;;;;;;4.00;4.00;;;;;8.20;66.91;99536.69;4976443;28;48135;-86
2021/12/08 12:28:10;;;;;;;;;3.67;0.33;;;;;8.23;66.61;99542.94;4988207;28;45753;-86
2021/12/08 12:30:54;;;;;;;;;3.67;2.00;;;;;8.34;67.76;99539.81;4990826;28;45575;-85
2021/12/08 12:33:22;;;;;;;;;8.00;4.00;;;;;8.52;66.13;99547.41;4989718;28;45634;-86
2021/12/08 12:35:52;;;;;;;;;7.67;4.00;;;;;8.55;66.46;99536.16;4980574;28;47333;-85
2021/12/08 12:38:18;;;;;;;;;2.67;2.00;;;;;8.52;61.48;99533.44;4975067;28;45537;-85
2021/12/08 12:40:51;;;;;;;;;2.33;2.33;;;;;8.48;66.30;99545.50;4992374;28;45438;-85
2021/12/08 12:43:32;;;;;;;;;7.00;7.00;;;;;8.50;64.30;99549.97;4980779;28;45276;-85
2021/12/08 12:46:05;;;;;;;;;2.33;2.00;;;;;8.45;64.73;99555.91;4993950;28;45520;-85
2021/12/08 12:48:31;;;;;;;;;3.33;2.00;;;;;8.38;64.30;99555.66;4996859;28;45663;-85
2021/12/08 12:50:58;;;;;;;;;2.00;1.00;;;;;8.32;61.69;99560.69;4979600;28;45498;-85
2021/12/08 12:53:45;;;;;;;;;9.00;6.67;;;;;8.26;65.95;99558.75;4995502;28;45573;-85
2021/12/08 12:56:27;;;;;;;;;6.33;6.33;;;;;8.21;64.64;99547.25;4980468;28;47296;-85
2021/12/08 12:58:54;;;;;;;;;6.67;6.33;;;;;8.21;65.53;99560.31;4991233;28;45505;-85
2021/12/08 13:01:27;;;;;;;;;3.00;2.00;;;;;8.21;66.32;99564.63;4978648;28;45895;-85
2021/12/08 13:03:56;;;;;;;;;6.00;4.00;;;;;8.19;65.32;99566.31;4992073;28;45574;-85
2021/12/08 13:06:38;;;;;;;;;3.00;2.33;;;;;8.21;66.04;99562.91;4983047;28;47420;-85
2021/12/08 13:09:05;;;;;;;;;7.00;6.33;;;;;8.27;64.97;99568.34;4993371;28;45612;-85
2021/12/08 13:11:52;;;;;;;;;8.00;4.33;;;;;8.38;66.81;99571.34;4972839;28;45501;-85
2021/12/08 13:14:24;;;;;;;;;8.33;7.33;;;;;8.52;65.47;99568.34;4974545;28;45531;-85
2021/12/08 13:17:14;;;;;;;;;3.33;2.67;;;;;8.72;64.86;99589.09;4991693;28;47546;-86
2021/12/08 13:19:50;;;;;;;;;33.75;29.50;;;;;8.76;65.92;99577.88;4977789;28;45471;-86
2021/12/08 13:22:44;;;;;;;;;38.75;29.25;;;;;8.86;63.86;99588.69;4993251;28;45667;-85
2021/12/08 13:25:40;;;;;;;;;18.33;13.33;;;;;8.93;63.04;99593.28;4967806;28;45603;-86
2021/12/08 13:29:04;;;;;;;;;17.75;15.00;;;;;8.93;65.03;99594.16;4994194;28;46277;-86
2021/12/08 13:31:37;;;;;;;;;12.00;10.67;;;;;8.85;64.39;99603.47;4991365;28;45387;-86
2021/12/08 13:34:05;;;;;;;;;7.00;6.00;;;;;8.89;65.27;99592.28;4975045;28;45427;-85
2021/12/08 13:36:35;;;;;;;;;5.00;5.00;;;;;9.02;64.72;99598.81;4995998;28;45470;-85
2021/12/08 13:39:20;;;;;;;;;2.33;2.33;;;;;8.92;63.10;99594.09;4991954;28;45296;-86
2021/12/08 13:42:12;;;;;;;;;3.00;3.00;;;;;8.87;64.30;99598.28;4994785;28;45423;-86
2021/12/08 13:44:41;;;;;;;;;2.67;2.67;;;;;8.96;63.02;99598.63;4975650;28;45490;-85
2021/12/08 13:47:41;;;;;;;;;1.00;1.00;;;;;8.92;63.46;99604.56;4988999;28;45464;-86
2021/12/08 13:50:17;;;;;;;;;6.00;5.33;;;;;8.80;59.82;99615.53;4985418;28;46727;-85
2021/12/08 13:52:57;;;;;;;;;6.33;4.00;;;;;8.67;62.29;99612.47;4991859;28;46122;-85
2021/12/08 13:55:26;;;;;;;;;5.00;4.00;;;;;8.63;63.04;99620.19;4993033;28;45555;-85
2021/12/08 13:58:08;;;;;;;;;2.00;2.00;;;;;8.66;64.85;99620.28;4988952;28;45514;-86
2021/12/08 14:00:40;;;;;;;;;3.00;3.00;;;;;8.80;61.54;99621.66;4997482;28;45454;-85
2021/12/08 14:03:10;;;;;;;;;3.67;2.67;;;;;8.94;63.94;99636.94;4991456;28;45816;-86
2021/12/08 14:05:59;;;;;;;;;5.33;3.00;;;;;8.92;63.47;99641.22;4995596;28;45435;-85
2021/12/08 14:08:43;;;;;;;;;7.33;4.33;;;;;8.86;63.40;99635.78;4976610;28;45708;-85
2021/12/08 14:11:11;;;;;;;;;3.00;3.00;;;;;8.82;63.73;99637.38;4972967;28;47376;-85
2021/12/08 14:13:41;;;;;;;;;7.67;4.00;;;;;8.80;64.52;99631.22;4995157;28;45481;-85
2021/12/08 14:16:10;;;;;;;;;10.00;8.00;;;;;8.88;63.07;99640.22;4991412;28;45442;-85
2021/12/08 14:18:42;;;;;;;;;8.00;6.67;;;;;8.87;64.99;99638.44;4973528;28;45481;-85
2021/12/08 14:21:21;;;;;;;;;8.00;4.33;;;;;8.91;62.63;99639.44;4975226;28;47698;-85
2021/12/08 14:23:59;;;;;;;;;7.00;6.00;;;;;8.94;64.42;99642.19;4992890;28;45359;-86
2021/12/08 14:26:31;;;;;;;;;3.33;3.00;;;;;8.91;64.09;99644.69;4980721;28;45543;-85
2021/12/08 14:28:58;;;;;;;;;3.67;3.00;;;;;8.89;64.24;99647.22;4992189;28;45660;-86
2021/12/08 14:31:46;;;;;;;;;5.00;5.00;;;;;8.88;63.53;99655.03;4989544;28;46364;-86
2021/12/08 14:34:16;;;;;;;;;4.00;2.33;;;;;8.82;64.27;99650.47;4977736;28;45720;-85
2021/12/08 14:36:46;;;;;;;;;3.33;3.00;;;;;8.81;63.97;99661.78;4970500;28;45563;-86
2021/12/08 14:39:24;;;;;;;;;3.00;2.00;;;;;8.77;65.33;99668.63;4993507;28;45549;-86
2021/12/08 14:41:53;;;;;;;;;23.00;18.00;;;;;8.69;63.55;99655.28;4992721;28;46372;-85
2021/12/08 14:44:23;;;;;;;;;18.67;14.00;;;;;8.66;64.65;99662.16;4980945;28;45460;-85
2021/12/08 14:46:52;;;;;;;;;42.75;36.50;;;;;8.64;64.59;99655.94;4991711;28;45380;-86
2021/12/08 14:49:21;;;;;;;;;9.00;7.00;;;;;8.73;64.76;99661.53;4985987;28;45596;-86
2021/12/08 14:51:54;;;;;;;;;10.33;8.67;;;;;8.69;65.36;99659.63;4988662;28;48348;-86
2021/12/08 14:54:19;;;;;;;;;6.00;4.00;;;;;8.72;64.13;99670.19;5004682;28;45619;-86
2021/12/08 14:57:18;;;;;;;;;6.00;3.33;;;;;8.64;65.57;99672.53;4996875;28;45442;-86
2021/12/08 15:00:09;;;;;;;;;3.00;2.67;;;;;8.55;65.43;99678.31;4994684;28;45810;-86
2021/12/08 15:02:45;;;;;;;;;3.00;3.00;;;;;8.54;65.78;99694.84;4981037;28;50653;-86
2021/12/08 15:05:19;;;;;;;;;1.67;1.00;;;;;8.55;64.78;99696.63;4988738;28;45678;-87
2021/12/08 15:07:46;;;;;;;;;3.00;3.00;;;;;8.52;65.31;99693.00;4992972;28;45495;-86
2021/12/08 15:10:17;;;;;;;;;3.00;3.00;;;;;8.56;66.18;99702.72;4993539;28;45556;-89
2021/12/08 15:12:46;;;;;;;;;2.00;2.00;;;;;8.55;66.13;99696.63;4980133;28;48538;-85
2021/12/08 15:15:20;;;;;;;;;2.00;2.00;;;;;8.53;65.42;99702.63;4996099;28;45614;-87
2021/12/08 15:17:58;;;;;;;;;3.00;1.33;;;;;8.46;65.56;99698.88;4994787;28;45566;-86
2021/12/08 15:20:31;;;;;;;;;4.00;2.67;;;;;8.42;65.74;99702.22;4996236;28;45425;-87
2021/12/08 15:22:58;;;;;;;;;1.67;1.67;;;;;8.42;65.79;99708.34;4993093;28;48568;-85
2021/12/08 15:25:23;;;;;;;;;5.67;3.00;;;;;8.43;65.50;99707.50;4976942;28;45395;-87
2021/12/08 15:27:51;;;;;;;;;5.33;4.00;;;;;8.42;65.84;99703.13;4995636;28;45352;-86
2021/12/08 15:30:36;;;;;;;;;4.00;4.00;;;;;8.42;65.95;99710.97;4997360;28;45606;-87
2021/12/08 15:33:04;;;;;;;;;6.00;6.00;;;;;8.43;64.99;99711.84;4992409;28;45527;-86
2021/12/08 15:35:30;;;;;;;;;6.33;5.33;;;;;8.38;66.45;99709.94;4990322;28;45388;-89
2021/12/08 15:37:57;;;;;;;;;4.00;3.00;;;;;8.34;65.75;99710.69;4991371;28;45519;-87
2021/12/08 15:40:35;;;;;;;;;6.67;6.67;;;;;8.35;66.29;99722.91;4993216;28;45534;-85
2021/12/08 15:43:04;;;;;;;;;6.00;6.00;;;;;8.34;66.43;99712.41;4974174;28;47565;-87
2021/12/08 15:45:29;;;;;;;;;7.67;5.00;;;;;8.37;66.88;99725.59;4974467;28;46013;-87
2021/12/08 15:47:57;;;;;;;;;3.00;3.00;;;;;8.35;66.87;99725.53;4991723;28;45494;-87
2021/12/08 15:50:36;;;;;;;;;3.33;3.33;;;;;8.33;66.65;99731.53;4974548;28;45401;-85
2021/12/08 15:53:03;;;;;;;;;3.00;2.00;;;;;8.31;65.09;99741.03;4990008;28;46052;-85
2021/12/08 15:55:32;;;;;;;;;2.00;2.00;;;;;8.31;65.96;99756.72;4975885;28;46503;-85
2021/12/08 15:58:06;;;;;;;;;2.67;2.67;;;;;8.21;65.51;99740.69;4992102;28;45373;-86
2021/12/08 16:00:45;;;;;;;;;4.00;4.00;;;;;8.22;66.14;99745.06;4986265;28;45450;-85
2021/12/08 16:03:11;;;;;;;;;1.00;1.00;;;;;8.20;67.39;99744.13;4983343;28;48619;-84
2021/12/08 16:05:37;;;;;;;;;6.67;3.67;;;;;8.22;66.95;99747.69;4991132;28;45712;-85
2021/12/08 16:08:04;;;;;;;;;4.67;4.67;;;;;8.18;67.34;99751.03;4973014;28;45420;-85
2021/12/08 16:10:32;;;;;;;;;6.67;6.00;;;;;8.14;67.80;99749.13;4994645;28;45603;-85
2021/12/08 16:13:03;;;;;;;;;5.00;3.67;;;;;8.06;67.18;99748.84;4981360;28;46445;-85
2021/12/08 16:15:49;;;;;;;;;6.00;6.00;;;;;8.06;68.00;99764.50;4970286;28;45550;-85
2021/12/08 16:18:24;;;;;;;;;8.00;7.00;;;;;7.97;67.03;99749.34;4974758;28;45469;-86
2021/12/08 16:20:50;;;;;;;;;6.33;6.33;;;;;7.92;67.33;99764.84;4986354;28;50863;-86
2021/12/08 16:23:15;;;;;;;;;7.67;6.00;;;;;7.92;68.57;99772.69;4960138;28;47011;-85
2021/12/08 16:25:41;;;;;;;;;9.00;7.67;;;;;7.92;68.21;99766.56;4989406;28;45464;-86
2021/12/08 16:28:10;;;;;;;;;9.00;8.00;;;;;7.87;68.42;99765.47;4977636;28;46052;-86
2021/12/08 16:30:40;;;;;;;;;9.33;6.00;;;;;7.82;67.97;99763.59;4974300;28;45684;-86
2021/12/08 16:33:06;;;;;;;;;11.00;6.33;;;;;7.74;67.96;99769.31;4971553;28;47566;-87
2021/12/08 16:35:32;;;;;;;;;8.00;7.00;;;;;7.65;68.02;99765.50;4989294;28;49941;-86
2021/12/08 16:37:59;;;;;;;;;3.33;3.00;;;;;7.59;68.03;99776.59;4973123;28;45857;-86
2021/12/08 16:43:09;;;;;;;;;6.00;6.00;;;;;7.47;68.36;99783.91;4991070;28;46119;-86
2021/12/08 16:45:39;;;;;;;;;8.33;6.00;;;;;7.41;68.89;99781.03;4974081;28;45517;-86
2021/12/08 16:48:07;;;;;;;;;8.00;6.67;;;;;7.45;68.81;99798.59;4974472;28;45457;-85
2021/12/08 16:50:34;;;;;;;;;4.33;4.33;;;;;7.41;68.95;99799.31;4974782;28;45608;-86
2021/12/08 16:53:01;;;;;;;;;9.00;7.33;;;;;7.37;68.76;99799.16;4996659;28;48030;-85
2021/12/08 16:55:28;;;;;;;;;10.25;8.50;;;;;7.34;69.21;99808.59;4986967;28;45501;-86
2021/12/08 16:57:57;;;;;;;;;6.33;6.00;;;;;7.36;69.26;99817.38;4978155;28;45401;-86
2021/12/08 17:00:26;;;;;;;;;6.00;6.00;;;;;7.33;69.16;99815.53;4974565;28;45508;-86
2021/12/08 17:02:53;;;;;;;;;7.67;6.67;;;;;7.30;69.21;99814.50;4966816;28;48297;-85
2021/12/08 17:05:18;;;;;;;;;8.00;8.00;;;;;7.27;68.52;99810.03;4991194;28;45450;-86
2021/12/08 17:07:45;;;;;;;;;9.67;9.33;;;;;7.23;69.06;99815.97;5002134;28;45606;-86
2021/12/08 17:10:14;;;;;;;;;7.67;6.00;;;;;7.24;69.02;99831.69;4997581;28;45473;-86
2021/12/08 17:12:40;;;;;;;;;6.00;6.00;;;;;7.20;69.56;99827.16;4984455;28;48254;-86
2021/12/08 17:15:09;;;;;;;;;6.00;4.67;;;;;7.18;69.35;99825.31;4983615;28;45571;-86
2021/12/08 17:17:35;;;;;;;;;5.33;3.00;;;;;7.20;69.48;99834.09;4972069;28;45727;-86
2021/12/08 17:20:03;;;;;;;;;4.00;4.00;;;;;7.15;69.06;99837.41;4991647;28;45590;-86
2021/12/08 17:22:28;;;;;;;;;6.00;4.50;;;;;7.11;69.23;99837.19;4997544;28;47630;-86
2021/12/08 17:24:54;;;;;;;;;5.00;3.67;;;;;7.09;68.57;99836.22;4983878;28;45956;-86
2021/12/08 17:27:19;;;;;;;;;7.33;6.67;;;;;7.09;69.46;99846.66;4996409;28;45752;-86
2021/12/08 17:29:45;;;;;;;;;14.50;11.50;;;;;7.10;69.15;99849.34;4975940;28;45584;-86
2021/12/08 17:32:13;;;;;;;;;10.67;8.67;;;;;7.12;68.76;99855.53;4991889;28;47444;-86
2021/12/08 17:34:38;;;;;;;;;8.67;6.67;;;;;7.10;69.25;99856.28;4995653;28;45497;-86
2021/12/08 17:37:04;;;;;;;;;8.00;6.00;;;;;7.09;68.81;99858.00;5008815;28;45434;-85
2021/12/08 17:39:30;;;;;;;;;4.67;4.67;;;;;7.10;68.29;99859.78;4999515;28;45470;-86
2021/12/08 17:41:56;;;;;;;;;7.00;4.00;;;;;7.08;69.38;99865.75;4980305;28;49135;-86
2021/12/08 17:44:22;;;;;;;;;9.00;6.67;;;;;7.02;68.45;99864.66;4991259;28;46151;-86
2021/12/08 17:46:50;;;;;;;;;10.00;8.33;;;;;7.04;69.02;99872.53;4999211;28;45427;-86
2021/12/08 17:49:15;;;;;;;;;13.00;9.33;;;;;7.00;69.29;99865.41;4975170;28;45555;-86
2021/12/08 17:51:41;;;;;;;;;7.00;7.00;;;;;7.01;68.67;99869.81;4992623;28;46334;-85
2021/12/08 17:54:07;;;;;;;;;11.00;8.67;;;;;7.00;69.23;99876.75;4988815;28;45597;-86
2021/12/08 17:56:35;;;;;;;;;9.67;8.00;;;;;6.97;68.59;99874.00;4980317;28;45488;-85
2021/12/08 17:59:04;;;;;;;;;11.00;11.00;;;;;7.00;68.87;99881.06;4995743;28;45924;-85
2021/12/08 18:01:31;;;;;;;;;14.67;12.67;;;;;6.97;69.45;99867.88;4999161;28;45388;-85
2021/12/08 18:03:58;;;;;;;;;13.75;13.50;;;;;6.89;69.41;99868.41;4997491;28;45482;-85
2021/12/08 18:06:24;;;;;;;;;16.75;12.00;;;;;6.93;69.13;99886.00;4978512;28;45354;-86
2021/12/08 18:08:50;;;;;;;;;14.33;7.67;;;;;6.92;68.21;99888.53;4977623;28;45604;-86
2021/12/08 18:11:16;;;;;;;;;14.33;10.00;;;;;6.86;68.90;99885.63;4989414;28;48000;-86
2021/12/08 18:13:42;;;;;;;;;10.67;7.33;;;;;6.80;68.40;99887.13;4991836;28;45451;-86
2021/12/08 18:16:08;;;;;;;;;7.00;7.00;;;;;6.77;68.53;99894.84;4975282;28;45644;-85
2021/12/08 18:18:33;;;;;;;;;7.33;6.00;;;;;6.76;67.81;99900.88;4974656;28;45606;-85
2021/12/08 18:20:59;;;;;;;;;7.00;6.00;;;;;6.74;68.55;99907.72;4965176;28;47452;-86
2021/12/08 18:23:25;;;;;;;;;6.00;6.00;;;;;6.72;68.93;99908.47;4974552;28;46102;-86
2021/12/08 18:25:53;;;;;;;;;8.67;5.00;;;;;6.70;68.92;99909.28;4992090;28;44905;-85
2021/12/08 18:28:19;;;;;;;;;7.67;7.67;;;;;6.64;68.58;99903.78;5013731;28;44834;-86
2021/12/08 18:30:46;;;;;;;;;12.33;11.67;;;;;6.63;68.76;99914.13;5003444;28;45507;-85
2021/12/08 18:33:13;;;;;;;;;7.00;7.00;;;;;6.55;68.48;99912.06;5001104;28;45546;-87
2021/12/08 18:35:54;;;;;;;;;13.50;12.00;;;;;6.57;69.63;99922.59;4992167;28;45494;-87
2021/12/08 18:38:22;;;;;;;;;14.75;14.00;;;;;6.55;68.85;99922.50;4972188;28;45778;-86
2021/12/08 18:40:48;;;;;;;;;16.50;12.00;;;;;6.55;70.21;99922.50;4971339;28;47062;-85
2021/12/08 18:43:14;;;;;;;;;10.75;9.50;;;;;6.49;69.10;99927.41;4967581;28;46389;-85
2021/12/08 18:45:42;;;;;;;;;23.00;17.25;;;;;6.48;69.03;99934.34;4987337;28;45501;-84
2021/12/08 18:48:08;;;;;;;;;21.00;16.75;;;;;6.48;69.19;99939.56;4989639;28;45535;-86
2021/12/08 18:50:35;;;;;;;;;17.50;14.00;;;;;6.39;70.12;99926.06;4967013;28;48603;-85
2021/12/08 18:53:01;;;;;;;;;16.25;12.25;;;;;6.42;69.71;99935.75;4971713;28;45950;-85
2021/12/08 18:55:27;;;;;;;;;12.00;10.00;;;;;6.40;69.33;99922.63;4991311;28;45497;-87
2021/12/08 18:57:53;;;;;;;;;10.00;7.00;;;;;6.43;69.34;99938.44;4991397;28;45745;-89
2021/12/08 19:00:20;;;;;;;;;9.25;9.25;;;;;6.38;69.68;99937.31;4969429;28;48227;-88
2021/12/08 19:02:46;;;;;;;;;10.25;9.50;;;;;6.36;69.28;99942.47;4990072;28;45357;-90
2021/12/08 19:05:20;;;;;;;;;11.00;7.50;;;;;6.34;69.82;99941.47;4971362;28;45401;-85
2021/12/08 19:07:57;;;;;;;;;15.75;15.50;;;;;6.38;69.69;99950.34;4991263;28;45442;-84
2021/12/08 19:10:23;;;;;;;;;10.25;10.25;;;;;6.35;70.05;99951.09;4971798;28;47659;-83
2021/12/08 19:12:49;;;;;;;;;22.25;20.25;;;;;6.36;69.55;99952.00;4985841;28;45660;-83
2021/12/08 19:15:16;;;;;;;;;39.75;30.25;;;;;6.35;69.25;99960.63;4983194;28;45573;-84
2021/12/08 19:17:42;;;;;;;;;34.50;31.25;;;;;6.29;69.23;99947.31;4969789;28;45400;-83
2021/12/08 19:20:12;;;;;;;;;32.00;27.75;;;;;6.35;69.65;99960.63;4971619;28;46134;-84
2021/12/08 19:22:38;;;;;;;;;40.25;32.50;;;;;6.28;69.25;99963.75;4988816;28;46207;-85
2021/12/08 19:25:06;;;;;;;;;36.75;35.25;;;;;6.29;69.20;99974.22;4990642;28;45695;-83
2021/12/08 19:27:32;;;;;;;;;40.75;36.25;;;;;6.29;69.85;99976.84;4988936;28;45573;-84
2021/12/08 19:29:58;;;;;;;;;26.50;26.50;;;;;6.28;70.03;99979.38;4972391;28;47411;-84
2021/12/08 19:32:24;;;;;;;;;22.00;21.75;;;;;6.23;69.36;99984.38;4972280;28;45432;-83
2021/12/08 19:34:51;;;;;;;;;17.75;12.75;;;;;6.20;69.88;99972.06;4988832;28;45603;-83